sensor_id;sensor_type;location;lat;lon;timestamp;P1;P2;P0
77515;PMS5003;66627;29.424;-98.496;2023-04-24T00:00:58;9;9;
77515;PMS5003;66627;29.424;-98.496;2023-04-24T00:03:24;10;10;
77515;PMS5003;66627;29.424;-98.496;2023-04-24T00:05:49;9;9;
77515;PMS5003;66627;29.424;-98.496;2023-04-24T00:08:14;9;9;
77515;PMS5003;66627;29.424;-98.496;2023-04-24T00:10:39;11;11;
77515;PMS5003;66627;29.424;-98.496;2023-04-24T00:13:04;8;8;
77515;PMS5003;66627;29.424;-98.496;2023-04-24T00:15:29;10;9;
77515;PMS5003;66627;29.424;-98.496;2023-04-24T00:17:55;11;11;
77515;PMS5003;66627;29.424;-98.496;2023-04-24T00:20:20;12;10;
77515;PMS5003;66627;29.424;-98.496;2023-04-24T00:22:45;9;9;
77515;PMS5003;66627;29.424;-98.496;2023-04-24T00:25:11;14;12;
77515;PMS5003;66627;29.424;-98.496;2023-04-24T00:27:36;9;9;
77515;PMS5003;66627;29.424;-98.496;2023-04-24T00:30:02;12;11;
77515;PMS5003;66627;29.424;-98.496;2023-04-24T00:32:26;11;11;
77515;PMS5003;66627;29.424;-98.496;2023-04-24T00:34:51;8;7;
77515;PMS5003;66627;29.424;-98.496;2023-04-24T00:37:17;9;9;
77515;PMS5003;66627;29.424;-98.496;2023-04-24T00:39:43;8;8;
77515;PMS5003;66627;29.424;-98.496;2023-04-24T00:42:08;11;9;
77515;PMS5003;66627;29.424;-98.496;2023-04-24T00:44:33;11;9;
77515;PMS5003;66627;29.424;-98.496;2023-04-24T00:46:59;12;10;
77515;PMS5003;66627;29.424;-98.496;2023-04-24T00:49:24;9;9;
77515;PMS5003;66627;29.424;-98.496;2023-04-24T00:51:49;9;9;
77515;PMS5003;66627;29.424;-98.496;2023-04-24T00:54:14;12;10;
77515;PMS5003;66627;29.424;-98.496;2023-04-24T00:56:40;12;10;
77515;PMS5003;66627;29.424;-98.496;2023-04-24T00:59:04;12;12;
77515;PMS5003;66627;29.424;-98.496;2023-04-24T01:01:30;14;13;
77515;PMS5003;66627;29.424;-98.496;2023-04-24T01:03:56;9;9;
77515;PMS5003;66627;29.424;-98.496;2023-04-24T01:06:21;11;10;
77515;PMS5003;66627;29.424;-98.496;2023-04-24T01:08:47;14;14;
77515;PMS5003;66627;29.424;-98.496;2023-04-24T01:11:12;15;15;
77515;PMS5003;66627;29.424;-98.496;2023-04-24T01:13:38;15;15;
77515;PMS5003;66627;29.424;-98.496;2023-04-24T01:16:03;14;14;
77515;PMS5003;66627;29.424;-98.496;2023-04-24T01:18:29;19;16;
77515;PMS5003;66627;29.424;-98.496;2023-04-24T01:20:55;17;16;
77515;PMS5003;66627;29.424;-98.496;2023-04-24T01:23:19;13;13;
77515;PMS5003;66627;29.424;-98.496;2023-04-24T01:25:44;13;13;
77515;PMS5003;66627;29.424;-98.496;2023-04-24T01:28:10;17;17;
77515;PMS5003;66627;29.424;-98.496;2023-04-24T01:30:36;18;18;
77515;PMS5003;66627;29.424;-98.496;2023-04-24T01:33:01;20;16;
77515;PMS5003;66627;29.424;-98.496;2023-04-24T01:35:27;14;13;
77515;PMS5003;66627;29.424;-98.496;2023-04-24T01:37:52;16;16;
77515;PMS5003;66627;29.424;-98.496;2023-04-24T01:40:18;15;13;
77515;PMS5003;66627;29.424;-98.496;2023-04-24T01:42:43;15;14;
77515;PMS5003;66627;29.424;-98.496;2023-04-24T01:45:10;21;20;
77515;PMS5003;66627;29.424;-98.496;2023-04-24T01:47:34;18;17;
77515;PMS5003;66627;29.424;-98.496;2023-04-24T01:49:59;13;12;
77515;PMS5003;66627;29.424;-98.496;2023-04-24T01:52:24;16;15;
77515;PMS5003;66627;29.424;-98.496;2023-04-24T01:54:50;15;15;
77515;PMS5003;66627;29.424;-98.496;2023-04-24T01:57:15;41;36;
77515;PMS5003;66627;29.424;-98.496;2023-04-24T01:59:45;27;25;
77515;PMS5003;66627;29.424;-98.496;2023-04-24T02:02:07;16;16;
77515;PMS5003;66627;29.424;-98.496;2023-04-24T02:04:32;20;17;
77515;PMS5003;66627;29.424;-98.496;2023-04-24T02:06:57;23;19;
77515;PMS5003;66627;29.424;-98.496;2023-04-24T02:09:22;16;16;
77515;PMS5003;66627;29.424;-98.496;2023-04-24T02:11:48;17;17;
77515;PMS5003;66627;29.424;-98.496;2023-04-24T02:14:13;20;18;
77515;PMS5003;66627;29.424;-98.496;2023-04-24T02:16:38;21;19;
77515;PMS5003;66627;29.424;-98.496;2023-04-24T02:19:04;18;18;
77515;PMS5003;66627;29.424;-98.496;2023-04-24T02:21:30;17;17;
77515;PMS5003;66627;29.424;-98.496;2023-04-24T02:23:55;18;18;
77515;PMS5003;66627;29.424;-98.496;2023-04-24T02:26:21;21;19;
77515;PMS5003;66627;29.424;-98.496;2023-04-24T02:28:46;15;15;
77515;PMS5003;66627;29.424;-98.496;2023-04-24T02:31:12;19;19;
77515;PMS5003;66627;29.424;-98.496;2023-04-24T02:33:37;14;14;
77515;PMS5003;66627;29.424;-98.496;2023-04-24T02:36:03;17;17;
77515;PMS5003;66627;29.424;-98.496;2023-04-24T02:38:28;19;17;
77515;PMS5003;66627;29.424;-98.496;2023-04-24T02:40:53;18;18;
77515;PMS5003;66627;29.424;-98.496;2023-04-24T02:43:19;21;20;
77515;PMS5003;66627;29.424;-98.496;2023-04-24T02:45:45;19;19;
77515;PMS5003;66627;29.424;-98.496;2023-04-24T02:48:10;18;17;
77515;PMS5003;66627;29.424;-98.496;2023-04-24T02:50:35;18;17;
77515;PMS5003;66627;29.424;-98.496;2023-04-24T02:53:01;19;19;
77515;PMS5003;66627;29.424;-98.496;2023-04-24T02:55:26;20;17;
77515;PMS5003;66627;29.424;-98.496;2023-04-24T02:57:51;20;17;
77515;PMS5003;66627;29.424;-98.496;2023-04-24T03:00:17;22;20;
77515;PMS5003;66627;29.424;-98.496;2023-04-24T03:02:42;21;18;
77515;PMS5003;66627;29.424;-98.496;2023-04-24T03:05:08;19;18;
77515;PMS5003;66627;29.424;-98.496;2023-04-24T03:07:34;17;17;
77515;PMS5003;66627;29.424;-98.496;2023-04-24T03:09:59;15;14;
77515;PMS5003;66627;29.424;-98.496;2023-04-24T03:12:24;20;20;
77515;PMS5003;66627;29.424;-98.496;2023-04-24T03:14:49;19;18;
77515;PMS5003;66627;29.424;-98.496;2023-04-24T03:17:15;18;17;
77515;PMS5003;66627;29.424;-98.496;2023-04-24T03:19:40;16;15;
77515;PMS5003;66627;29.424;-98.496;2023-04-24T03:22:06;18;18;
77515;PMS5003;66627;29.424;-98.496;2023-04-24T03:24:32;20;19;
77515;PMS5003;66627;29.424;-98.496;2023-04-24T03:26:58;32;30;
77515;PMS5003;66627;29.424;-98.496;2023-04-24T03:29:23;18;17;
77515;PMS5003;66627;29.424;-98.496;2023-04-24T03:31:49;17;17;
77515;PMS5003;66627;29.424;-98.496;2023-04-24T03:34:14;14;14;
77515;PMS5003;66627;29.424;-98.496;2023-04-24T03:36:40;16;15;
77515;PMS5003;66627;29.424;-98.496;2023-04-24T03:39:06;16;16;
77515;PMS5003;66627;29.424;-98.496;2023-04-24T03:41:31;18;18;
77515;PMS5003;66627;29.424;-98.496;2023-04-24T03:43:57;19;17;
77515;PMS5003;66627;29.424;-98.496;2023-04-24T03:46:22;19;17;
77515;PMS5003;66627;29.424;-98.496;2023-04-24T03:48:47;19;18;
77515;PMS5003;66627;29.424;-98.496;2023-04-24T03:51:13;14;14;
77515;PMS5003;66627;29.424;-98.496;2023-04-24T03:53:39;16;16;
77515;PMS5003;66627;29.424;-98.496;2023-04-24T03:56:05;15;15;
77515;PMS5003;66627;29.424;-98.496;2023-04-24T03:58:30;19;19;
77515;PMS5003;66627;29.424;-98.496;2023-04-24T04:00:56;17;16;
77515;PMS5003;66627;29.424;-98.496;2023-04-24T04:03:21;17;17;
77515;PMS5003;66627;29.424;-98.496;2023-04-24T04:05:47;22;18;
77515;PMS5003;66627;29.424;-98.496;2023-04-24T04:08:13;17;17;
77515;PMS5003;66627;29.424;-98.496;2023-04-24T04:10:38;18;18;
77515;PMS5003;66627;29.424;-98.496;2023-04-24T04:13:03;19;16;
77515;PMS5003;66627;29.424;-98.496;2023-04-24T04:15:29;19;18;
77515;PMS5003;66627;29.424;-98.496;2023-04-24T04:17:54;22;20;
77515;PMS5003;66627;29.424;-98.496;2023-04-24T04:20:20;20;17;
77515;PMS5003;66627;29.424;-98.496;2023-04-24T04:22:46;22;17;
77515;PMS5003;66627;29.424;-98.496;2023-04-24T04:25:11;23;20;
77515;PMS5003;66627;29.424;-98.496;2023-04-24T04:27:37;15;15;
77515;PMS5003;66627;29.424;-98.496;2023-04-24T04:30:03;18;18;
77515;PMS5003;66627;29.424;-98.496;2023-04-24T04:32:28;20;19;
77515;PMS5003;66627;29.424;-98.496;2023-04-24T04:34:54;18;18;
77515;PMS5003;66627;29.424;-98.496;2023-04-24T04:37:20;21;20;
77515;PMS5003;66627;29.424;-98.496;2023-04-24T04:39:44;19;19;
77515;PMS5003;66627;29.424;-98.496;2023-04-24T04:42:15;17;15;
77515;PMS5003;66627;29.424;-98.496;2023-04-24T04:44:35;23;22;
77515;PMS5003;66627;29.424;-98.496;2023-04-24T04:47:01;19;18;
77515;PMS5003;66627;29.424;-98.496;2023-04-24T04:49:27;23;21;
77515;PMS5003;66627;29.424;-98.496;2023-04-24T04:51:52;17;16;
77515;PMS5003;66627;29.424;-98.496;2023-04-24T04:54:18;21;18;
77515;PMS5003;66627;29.424;-98.496;2023-04-24T04:56:43;19;17;
77515;PMS5003;66627;29.424;-98.496;2023-04-24T04:59:08;14;14;
77515;PMS5003;66627;29.424;-98.496;2023-04-24T05:01:34;19;17;
77515;PMS5003;66627;29.424;-98.496;2023-04-24T05:04:00;16;14;
77515;PMS5003;66627;29.424;-98.496;2023-04-24T05:06:25;20;20;
77515;PMS5003;66627;29.424;-98.496;2023-04-24T05:08:50;17;17;
77515;PMS5003;66627;29.424;-98.496;2023-04-24T05:11:15;20;18;
77515;PMS5003;66627;29.424;-98.496;2023-04-24T05:13:41;16;16;
77515;PMS5003;66627;29.424;-98.496;2023-04-24T05:16:06;19;15;
77515;PMS5003;66627;29.424;-98.496;2023-04-24T05:18:32;17;17;
77515;PMS5003;66627;29.424;-98.496;2023-04-24T05:20:58;18;16;
77515;PMS5003;66627;29.424;-98.496;2023-04-24T05:23:23;16;15;
77515;PMS5003;66627;29.424;-98.496;2023-04-24T05:25:49;18;18;
77515;PMS5003;66627;29.424;-98.496;2023-04-24T05:28:14;20;19;
77515;PMS5003;66627;29.424;-98.496;2023-04-24T05:30:40;15;15;
77515;PMS5003;66627;29.424;-98.496;2023-04-24T05:33:05;17;16;
77515;PMS5003;66627;29.424;-98.496;2023-04-24T05:35:31;14;12;
77515;PMS5003;66627;29.424;-98.496;2023-04-24T05:37:57;15;15;
77515;PMS5003;66627;29.424;-98.496;2023-04-24T05:40:22;16;16;
77515;PMS5003;66627;29.424;-98.496;2023-04-24T05:42:48;17;16;
77515;PMS5003;66627;29.424;-98.496;2023-04-24T05:45:13;14;13;
77515;PMS5003;66627;29.424;-98.496;2023-04-24T05:47:38;15;14;
77515;PMS5003;66627;29.424;-98.496;2023-04-24T05:50:04;15;13;
77515;PMS5003;66627;29.424;-98.496;2023-04-24T05:52:29;17;14;
77515;PMS5003;66627;29.424;-98.496;2023-04-24T05:54:55;12;12;
77515;PMS5003;66627;29.424;-98.496;2023-04-24T05:57:21;13;11;
77515;PMS5003;66627;29.424;-98.496;2023-04-24T05:59:47;12;12;
77515;PMS5003;66627;29.424;-98.496;2023-04-24T06:02:12;14;14;
77515;PMS5003;66627;29.424;-98.496;2023-04-24T06:04:37;11;11;
77515;PMS5003;66627;29.424;-98.496;2023-04-24T06:07:03;13;11;
77515;PMS5003;66627;29.424;-98.496;2023-04-24T06:09:28;14;13;
77515;PMS5003;66627;29.424;-98.496;2023-04-24T06:11:54;14;14;
77515;PMS5003;66627;29.424;-98.496;2023-04-24T06:14:19;14;12;
77515;PMS5003;66627;29.424;-98.496;2023-04-24T06:16:44;14;14;
77515;PMS5003;66627;29.424;-98.496;2023-04-24T06:19:10;12;11;
77515;PMS5003;66627;29.424;-98.496;2023-04-24T06:21:36;14;14;
77515;PMS5003;66627;29.424;-98.496;2023-04-24T06:24:01;13;13;
77515;PMS5003;66627;29.424;-98.496;2023-04-24T06:26:26;12;12;
77515;PMS5003;66627;29.424;-98.496;2023-04-24T06:28:51;14;12;
77515;PMS5003;66627;29.424;-98.496;2023-04-24T06:31:16;14;12;
77515;PMS5003;66627;29.424;-98.496;2023-04-24T06:33:42;12;11;
77515;PMS5003;66627;29.424;-98.496;2023-04-24T06:36:07;15;13;
77515;PMS5003;66627;29.424;-98.496;2023-04-24T06:38:33;14;13;
77515;PMS5003;66627;29.424;-98.496;2023-04-24T06:40:59;12;11;
77515;PMS5003;66627;29.424;-98.496;2023-04-24T06:43:24;13;12;
77515;PMS5003;66627;29.424;-98.496;2023-04-24T06:45:49;13;13;
77515;PMS5003;66627;29.424;-98.496;2023-04-24T06:48:15;13;13;
77515;PMS5003;66627;29.424;-98.496;2023-04-24T06:50:40;16;14;
77515;PMS5003;66627;29.424;-98.496;2023-04-24T06:53:06;16;15;
77515;PMS5003;66627;29.424;-98.496;2023-04-24T06:55:31;15;12;
77515;PMS5003;66627;29.424;-98.496;2023-04-24T06:57:56;15;13;
77515;PMS5003;66627;29.424;-98.496;2023-04-24T07:00:21;11;10;
77515;PMS5003;66627;29.424;-98.496;2023-04-24T07:02:46;13;13;
77515;PMS5003;66627;29.424;-98.496;2023-04-24T07:05:12;14;13;
77515;PMS5003;66627;29.424;-98.496;2023-04-24T07:07:37;15;13;
77515;PMS5003;66627;29.424;-98.496;2023-04-24T07:10:03;15;14;
77515;PMS5003;66627;29.424;-98.496;2023-04-24T07:12:28;15;15;
77515;PMS5003;66627;29.424;-98.496;2023-04-24T07:14:53;17;15;
77515;PMS5003;66627;29.424;-98.496;2023-04-24T07:17:19;16;14;
77515;PMS5003;66627;29.424;-98.496;2023-04-24T07:19:44;15;15;
77515;PMS5003;66627;29.424;-98.496;2023-04-24T07:22:10;19;17;
77515;PMS5003;66627;29.424;-98.496;2023-04-24T07:24:36;16;14;
77515;PMS5003;66627;29.424;-98.496;2023-04-24T07:27:01;16;16;
77515;PMS5003;66627;29.424;-98.496;2023-04-24T07:29:26;14;14;
77515;PMS5003;66627;29.424;-98.496;2023-04-24T07:31:52;18;18;
77515;PMS5003;66627;29.424;-98.496;2023-04-24T07:34:18;16;15;
77515;PMS5003;66627;29.424;-98.496;2023-04-24T07:36:43;17;16;
77515;PMS5003;66627;29.424;-98.496;2023-04-24T07:39:08;18;16;
77515;PMS5003;66627;29.424;-98.496;2023-04-24T07:41:35;17;15;
77515;PMS5003;66627;29.424;-98.496;2023-04-24T07:44:00;16;15;
77515;PMS5003;66627;29.424;-98.496;2023-04-24T07:46:25;17;17;
77515;PMS5003;66627;29.424;-98.496;2023-04-24T07:48:51;19;18;
77515;PMS5003;66627;29.424;-98.496;2023-04-24T07:51:16;15;15;
77515;PMS5003;66627;29.424;-98.496;2023-04-24T07:53:43;16;15;
77515;PMS5003;66627;29.424;-98.496;2023-04-24T07:56:08;21;17;
77515;PMS5003;66627;29.424;-98.496;2023-04-24T07:58:34;18;18;
77515;PMS5003;66627;29.424;-98.496;2023-04-24T08:00:59;20;17;
77515;PMS5003;66627;29.424;-98.496;2023-04-24T08:03:25;15;15;
77515;PMS5003;66627;29.424;-98.496;2023-04-24T08:05:50;16;15;
77515;PMS5003;66627;29.424;-98.496;2023-04-24T08:08:15;11;11;
77515;PMS5003;66627;29.424;-98.496;2023-04-24T08:10:41;16;15;
77515;PMS5003;66627;29.424;-98.496;2023-04-24T08:13:07;12;12;
77515;PMS5003;66627;29.424;-98.496;2023-04-24T08:15:32;13;13;
77515;PMS5003;66627;29.424;-98.496;2023-04-24T08:17:58;15;15;
77515;PMS5003;66627;29.424;-98.496;2023-04-24T08:20:23;22;15;
77515;PMS5003;66627;29.424;-98.496;2023-04-24T08:22:48;16;16;
77515;PMS5003;66627;29.424;-98.496;2023-04-24T08:25:14;15;15;
77515;PMS5003;66627;29.424;-98.496;2023-04-24T08:27:39;14;14;
77515;PMS5003;66627;29.424;-98.496;2023-04-24T08:30:05;15;14;
77515;PMS5003;66627;29.424;-98.496;2023-04-24T08:32:29;15;15;
77515;PMS5003;66627;29.424;-98.496;2023-04-24T08:34:56;17;17;
77515;PMS5003;66627;29.424;-98.496;2023-04-24T08:37:20;15;15;
77515;PMS5003;66627;29.424;-98.496;2023-04-24T08:39:46;13;13;
77515;PMS5003;66627;29.424;-98.496;2023-04-24T08:42:12;12;12;
77515;PMS5003;66627;29.424;-98.496;2023-04-24T08:44:36;15;15;
77515;PMS5003;66627;29.424;-98.496;2023-04-24T08:47:03;15;15;
77515;PMS5003;66627;29.424;-98.496;2023-04-24T08:49:28;17;17;
77515;PMS5003;66627;29.424;-98.496;2023-04-24T08:51:53;15;14;
77515;PMS5003;66627;29.424;-98.496;2023-04-24T08:54:18;15;15;
77515;PMS5003;66627;29.424;-98.496;2023-04-24T08:56:44;17;17;
77515;PMS5003;66627;29.424;-98.496;2023-04-24T08:59:09;20;17;
77515;PMS5003;66627;29.424;-98.496;2023-04-24T09:01:35;20;19;
77515;PMS5003;66627;29.424;-98.496;2023-04-24T09:04:00;19;19;
77515;PMS5003;66627;29.424;-98.496;2023-04-24T09:06:25;16;16;
77515;PMS5003;66627;29.424;-98.496;2023-04-24T09:08:51;19;18;
77515;PMS5003;66627;29.424;-98.496;2023-04-24T09:11:16;17;17;
77515;PMS5003;66627;29.424;-98.496;2023-04-24T09:13:42;21;18;
77515;PMS5003;66627;29.424;-98.496;2023-04-24T09:16:07;22;19;
77515;PMS5003;66627;29.424;-98.496;2023-04-24T09:18:32;22;19;
77515;PMS5003;66627;29.424;-98.496;2023-04-24T09:20:58;16;16;
77515;PMS5003;66627;29.424;-98.496;2023-04-24T09:23:25;18;18;
77515;PMS5003;66627;29.424;-98.496;2023-04-24T09:25:49;21;21;
77515;PMS5003;66627;29.424;-98.496;2023-04-24T09:28:15;19;19;
77515;PMS5003;66627;29.424;-98.496;2023-04-24T09:30:40;18;18;
77515;PMS5003;66627;29.424;-98.496;2023-04-24T09:33:10;19;17;
77515;PMS5003;66627;29.424;-98.496;2023-04-24T09:35:31;22;19;
77515;PMS5003;66627;29.424;-98.496;2023-04-24T09:37:56;18;18;
77515;PMS5003;66627;29.424;-98.496;2023-04-24T09:40:22;19;18;
77515;PMS5003;66627;29.424;-98.496;2023-04-24T09:42:52;19;18;
77515;PMS5003;66627;29.424;-98.496;2023-04-24T09:45:13;23;22;
77515;PMS5003;66627;29.424;-98.496;2023-04-24T09:47:39;25;24;
77515;PMS5003;66627;29.424;-98.496;2023-04-24T09:50:11;20;18;
77515;PMS5003;66627;29.424;-98.496;2023-04-24T09:52:30;18;18;
77515;PMS5003;66627;29.424;-98.496;2023-04-24T09:54:55;22;22;
77515;PMS5003;66627;29.424;-98.496;2023-04-24T09:57:21;22;19;
77515;PMS5003;66627;29.424;-98.496;2023-04-24T09:59:46;22;20;
77515;PMS5003;66627;29.424;-98.496;2023-04-24T10:04:37;20;18;
77515;PMS5003;66627;29.424;-98.496;2023-04-24T10:07:03;20;16;
77515;PMS5003;66627;29.424;-98.496;2023-04-24T10:09:28;18;17;
77515;PMS5003;66627;29.424;-98.496;2023-04-24T10:11:54;17;17;
77515;PMS5003;66627;29.424;-98.496;2023-04-24T10:14:20;23;19;
77515;PMS5003;66627;29.424;-98.496;2023-04-24T10:16:44;19;17;
77515;PMS5003;66627;29.424;-98.496;2023-04-24T10:19:10;20;20;
77515;PMS5003;66627;29.424;-98.496;2023-04-24T10:21:36;19;17;
77515;PMS5003;66627;29.424;-98.496;2023-04-24T10:24:01;20;18;
77515;PMS5003;66627;29.424;-98.496;2023-04-24T10:26:27;22;18;
77515;PMS5003;66627;29.424;-98.496;2023-04-24T10:28:53;19;16;
77515;PMS5003;66627;29.424;-98.496;2023-04-24T10:31:18;21;19;
77515;PMS5003;66627;29.424;-98.496;2023-04-24T10:33:44;23;16;
77515;PMS5003;66627;29.424;-98.496;2023-04-24T10:36:10;16;16;
77515;PMS5003;66627;29.424;-98.496;2023-04-24T10:38:35;19;17;
77515;PMS5003;66627;29.424;-98.496;2023-04-24T10:43:25;17;16;
77515;PMS5003;66627;29.424;-98.496;2023-04-24T10:46:00;17;17;
77515;PMS5003;66627;29.424;-98.496;2023-04-24T10:48:16;18;18;
77515;PMS5003;66627;29.424;-98.496;2023-04-24T10:50:43;13;13;
77515;PMS5003;66627;29.424;-98.496;2023-04-24T10:53:07;12;12;
77515;PMS5003;66627;29.424;-98.496;2023-04-24T10:55:41;16;16;
77515;PMS5003;66627;29.424;-98.496;2023-04-24T10:58:02;19;17;
77515;PMS5003;66627;29.424;-98.496;2023-04-24T11:00:24;16;16;
77515;PMS5003;66627;29.424;-98.496;2023-04-24T11:02:48;16;14;
77515;PMS5003;66627;29.424;-98.496;2023-04-24T11:05:14;17;17;
77515;PMS5003;66627;29.424;-98.496;2023-04-24T11:10:05;16;15;
77515;PMS5003;66627;29.424;-98.496;2023-04-24T11:12:31;15;13;
77515;PMS5003;66627;29.424;-98.496;2023-04-24T11:15:00;16;16;
77515;PMS5003;66627;29.424;-98.496;2023-04-24T11:17:30;16;16;
77515;PMS5003;66627;29.424;-98.496;2023-04-24T11:19:50;17;15;
77515;PMS5003;66627;29.424;-98.496;2023-04-24T11:22:14;16;16;
77515;PMS5003;66627;29.424;-98.496;2023-04-24T11:24:38;17;17;
77515;PMS5003;66627;29.424;-98.496;2023-04-24T11:27:07;15;15;
77515;PMS5003;66627;29.424;-98.496;2023-04-24T11:31:55;18;14;
77515;PMS5003;66627;29.424;-98.496;2023-04-24T11:34:20;16;14;
77515;PMS5003;66627;29.424;-98.496;2023-04-24T11:36:46;16;14;
77515;PMS5003;66627;29.424;-98.496;2023-04-24T11:39:11;16;15;
77515;PMS5003;66627;29.424;-98.496;2023-04-24T11:41:37;16;15;
77515;PMS5003;66627;29.424;-98.496;2023-04-24T11:44:03;14;13;
77515;PMS5003;66627;29.424;-98.496;2023-04-24T11:46:29;16;15;
77515;PMS5003;66627;29.424;-98.496;2023-04-24T11:48:53;16;16;
77515;PMS5003;66627;29.424;-98.496;2023-04-24T11:51:19;18;18;
77515;PMS5003;66627;29.424;-98.496;2023-04-24T11:53:45;16;15;
77515;PMS5003;66627;29.424;-98.496;2023-04-24T11:56:11;17;14;
77515;PMS5003;66627;29.424;-98.496;2023-04-24T11:58:36;16;16;
77515;PMS5003;66627;29.424;-98.496;2023-04-24T12:01:01;19;19;
77515;PMS5003;66627;29.424;-98.496;2023-04-24T12:03:26;20;18;
77515;PMS5003;66627;29.424;-98.496;2023-04-24T12:05:52;22;20;
77515;PMS5003;66627;29.424;-98.496;2023-04-24T12:10:44;22;17;
77515;PMS5003;66627;29.424;-98.496;2023-04-24T12:13:09;22;21;
77515;PMS5003;66627;29.424;-98.496;2023-04-24T12:15:35;26;23;
77515;PMS5003;66627;29.424;-98.496;2023-04-24T12:18:01;18;18;
77515;PMS5003;66627;29.424;-98.496;2023-04-24T12:20:26;23;22;
77515;PMS5003;66627;29.424;-98.496;2023-04-24T12:22:52;21;20;
77515;PMS5003;66627;29.424;-98.496;2023-04-24T12:25:17;22;20;
77515;PMS5003;66627;29.424;-98.496;2023-04-24T12:27:42;20;16;
77515;PMS5003;66627;29.424;-98.496;2023-04-24T12:30:10;20;19;
77515;PMS5003;66627;29.424;-98.496;2023-04-24T12:32:32;27;25;
77515;PMS5003;66627;29.424;-98.496;2023-04-24T12:34:57;22;22;
77515;PMS5003;66627;29.424;-98.496;2023-04-24T12:37:23;21;19;
77515;PMS5003;66627;29.424;-98.496;2023-04-24T12:42:14;22;22;
77515;PMS5003;66627;29.424;-98.496;2023-04-24T12:44:40;21;19;
77515;PMS5003;66627;29.424;-98.496;2023-04-24T12:47:06;28;26;
77515;PMS5003;66627;29.424;-98.496;2023-04-24T12:49:31;24;22;
77515;PMS5003;66627;29.424;-98.496;2023-04-24T12:51:57;21;19;
77515;PMS5003;66627;29.424;-98.496;2023-04-24T12:54:23;23;21;
77515;PMS5003;66627;29.424;-98.496;2023-04-24T12:56:48;20;20;
77515;PMS5003;66627;29.424;-98.496;2023-04-24T12:59:13;20;19;
77515;PMS5003;66627;29.424;-98.496;2023-04-24T13:01:39;23;21;
77515;PMS5003;66627;29.424;-98.496;2023-04-24T13:04:05;21;20;
77515;PMS5003;66627;29.424;-98.496;2023-04-24T13:06:29;23;20;
77515;PMS5003;66627;29.424;-98.496;2023-04-24T13:08:55;19;19;
77515;PMS5003;66627;29.424;-98.496;2023-04-24T13:11:20;19;19;
77515;PMS5003;66627;29.424;-98.496;2023-04-24T13:13:45;21;21;
77515;PMS5003;66627;29.424;-98.496;2023-04-24T13:16:11;30;25;
77515;PMS5003;66627;29.424;-98.496;2023-04-24T13:18:37;20;19;
77515;PMS5003;66627;29.424;-98.496;2023-04-24T13:21:02;22;21;
77515;PMS5003;66627;29.424;-98.496;2023-04-24T13:23:27;23;21;
77515;PMS5003;66627;29.424;-98.496;2023-04-24T13:25:53;23;20;
77515;PMS5003;66627;29.424;-98.496;2023-04-24T13:28:18;28;23;
77515;PMS5003;66627;29.424;-98.496;2023-04-24T13:30:44;21;21;
77515;PMS5003;66627;29.424;-98.496;2023-04-24T13:33:10;22;20;
77515;PMS5003;66627;29.424;-98.496;2023-04-24T13:35:35;21;21;
77515;PMS5003;66627;29.424;-98.496;2023-04-24T13:38:01;24;22;
77515;PMS5003;66627;29.424;-98.496;2023-04-24T13:40:27;24;23;
77515;PMS5003;66627;29.424;-98.496;2023-04-24T13:42:52;17;17;
77515;PMS5003;66627;29.424;-98.496;2023-04-24T13:45:17;20;20;
77515;PMS5003;66627;29.424;-98.496;2023-04-24T13:47:43;19;17;
77515;PMS5003;66627;29.424;-98.496;2023-04-24T13:50:09;26;24;
77515;PMS5003;66627;29.424;-98.496;2023-04-24T13:52:34;22;22;
77515;PMS5003;66627;29.424;-98.496;2023-04-24T13:55:00;17;17;
77515;PMS5003;66627;29.424;-98.496;2023-04-24T13:57:25;19;18;
77515;PMS5003;66627;29.424;-98.496;2023-04-24T13:59:51;17;17;
77515;PMS5003;66627;29.424;-98.496;2023-04-24T14:02:16;24;22;
77515;PMS5003;66627;29.424;-98.496;2023-04-24T14:04:41;24;23;
77515;PMS5003;66627;29.424;-98.496;2023-04-24T14:07:07;21;21;
77515;PMS5003;66627;29.424;-98.496;2023-04-24T14:09:32;20;19;
77515;PMS5003;66627;29.424;-98.496;2023-04-24T14:11:57;22;20;
77515;PMS5003;66627;29.424;-98.496;2023-04-24T14:14:22;25;21;
77515;PMS5003;66627;29.424;-98.496;2023-04-24T14:16:48;26;21;
77515;PMS5003;66627;29.424;-98.496;2023-04-24T14:19:14;14;14;
77515;PMS5003;66627;29.424;-98.496;2023-04-24T14:21:39;21;20;
77515;PMS5003;66627;29.424;-98.496;2023-04-24T14:24:04;20;20;
77515;PMS5003;66627;29.424;-98.496;2023-04-24T14:26:30;22;20;
77515;PMS5003;66627;29.424;-98.496;2023-04-24T14:28:55;19;18;
77515;PMS5003;66627;29.424;-98.496;2023-04-24T14:31:20;17;17;
77515;PMS5003;66627;29.424;-98.496;2023-04-24T14:33:45;13;13;
77515;PMS5003;66627;29.424;-98.496;2023-04-24T14:36:11;17;17;
77515;PMS5003;66627;29.424;-98.496;2023-04-24T14:38:37;17;17;
77515;PMS5003;66627;29.424;-98.496;2023-04-24T14:41:03;18;17;
77515;PMS5003;66627;29.424;-98.496;2023-04-24T14:43:28;15;15;
77515;PMS5003;66627;29.424;-98.496;2023-04-24T14:45:54;20;15;
77515;PMS5003;66627;29.424;-98.496;2023-04-24T14:48:19;17;17;
77515;PMS5003;66627;29.424;-98.496;2023-04-24T14:50:45;18;18;
77515;PMS5003;66627;29.424;-98.496;2023-04-24T14:53:11;17;17;
77515;PMS5003;66627;29.424;-98.496;2023-04-24T14:55:37;19;18;
77515;PMS5003;66627;29.424;-98.496;2023-04-24T14:58:02;15;14;
77515;PMS5003;66627;29.424;-98.496;2023-04-24T15:00:28;15;15;
77515;PMS5003;66627;29.424;-98.496;2023-04-24T15:02:53;20;19;
77515;PMS5003;66627;29.424;-98.496;2023-04-24T15:05:19;15;15;
77515;PMS5003;66627;29.424;-98.496;2023-04-24T15:07:45;18;18;
77515;PMS5003;66627;29.424;-98.496;2023-04-24T15:10:11;19;16;
77515;PMS5003;66627;29.424;-98.496;2023-04-24T15:12:36;19;14;
77515;PMS5003;66627;29.424;-98.496;2023-04-24T15:15:02;24;20;
77515;PMS5003;66627;29.424;-98.496;2023-04-24T15:17:27;16;14;
77515;PMS5003;66627;29.424;-98.496;2023-04-24T15:19:53;19;17;
77515;PMS5003;66627;29.424;-98.496;2023-04-24T15:22:18;14;14;
77515;PMS5003;66627;29.424;-98.496;2023-04-24T15:24:43;14;14;
77515;PMS5003;66627;29.424;-98.496;2023-04-24T15:27:09;18;18;
77515;PMS5003;66627;29.424;-98.496;2023-04-24T15:29:34;14;14;
77515;PMS5003;66627;29.424;-98.496;2023-04-24T15:32:01;14;14;
77515;PMS5003;66627;29.424;-98.496;2023-04-24T15:34:25;15;15;
77515;PMS5003;66627;29.424;-98.496;2023-04-24T15:36:51;15;15;
77515;PMS5003;66627;29.424;-98.496;2023-04-24T15:39:16;15;13;
77515;PMS5003;66627;29.424;-98.496;2023-04-24T15:41:41;13;13;
77515;PMS5003;66627;29.424;-98.496;2023-04-24T15:44:06;16;16;
77515;PMS5003;66627;29.424;-98.496;2023-04-24T15:46:32;14;13;
77515;PMS5003;66627;29.424;-98.496;2023-04-24T15:48:57;12;12;